sensor_id;sensor_type;location;lat;lon;timestamp;P1;durP1;ratioP1;P2;durP2;ratioP2
31126;SDS011;17775;57.948;12.514;2024-01-30T00:00:47;0.98;;;0.52;;
31126;SDS011;17775;57.948;12.514;2024-01-30T00:03:13;0.90;;;0.60;;
31126;SDS011;17775;57.948;12.514;2024-01-30T00:05:40;0.88;;;0.50;;
31126;SDS011;17775;57.948;12.514;2024-01-30T00:08:06;1.10;;;0.52;;
31126;SDS011;17775;57.948;12.514;2024-01-30T00:10:33;0.40;;;0.40;;
31126;SDS011;17775;57.948;12.514;2024-01-30T00:12:59;0.40;;;0.40;;
31126;SDS011;17775;57.948;12.514;2024-01-30T00:15:26;0.40;;;0.40;;
31126;SDS011;17775;57.948;12.514;2024-01-30T00:17:52;0.40;;;0.40;;
31126;SDS011;17775;57.948;12.514;2024-01-30T00:20:20;0.50;;;0.50;;
31126;SDS011;17775;57.948;12.514;2024-01-30T00:22:47;0.65;;;0.45;;
31126;SDS011;17775;57.948;12.514;2024-01-30T00:25:13;0.85;;;0.50;;
31126;SDS011;17775;57.948;12.514;2024-01-30T00:27:40;0.50;;;0.50;;
31126;SDS011;17775;57.948;12.514;2024-01-30T00:30:09;0.65;;;0.47;;
31126;SDS011;17775;57.948;12.514;2024-01-30T00:35:03;0.80;;;0.50;;
31126;SDS011;17775;57.948;12.514;2024-01-30T00:37:30;1.00;;;0.70;;
31126;SDS011;17775;57.948;12.514;2024-01-30T00:39:58;0.68;;;0.40;;
31126;SDS011;17775;57.948;12.514;2024-01-30T00:42:24;0.55;;;0.43;;
31126;SDS011;17775;57.948;12.514;2024-01-30T00:44:51;0.75;;;0.50;;
31126;SDS011;17775;57.948;12.514;2024-01-30T00:47:17;0.70;;;0.68;;
31126;SDS011;17775;57.948;12.514;2024-01-30T00:49:44;0.57;;;0.57;;
31126;SDS011;17775;57.948;12.514;2024-01-30T00:52:10;0.88;;;0.70;;
31126;SDS011;17775;57.948;12.514;2024-01-30T00:54:38;0.90;;;0.70;;
31126;SDS011;17775;57.948;12.514;2024-01-30T00:57:04;1.10;;;0.70;;
31126;SDS011;17775;57.948;12.514;2024-01-30T00:59:31;1.08;;;0.70;;
31126;SDS011;17775;57.948;12.514;2024-01-30T01:01:57;0.88;;;0.70;;
31126;SDS011;17775;57.948;12.514;2024-01-30T01:04:24;0.57;;;0.45;;
31126;SDS011;17775;57.948;12.514;2024-01-30T01:06:50;0.50;;;0.50;;
31126;SDS011;17775;57.948;12.514;2024-01-30T01:09:17;0.60;;;0.40;;
31126;SDS011;17775;57.948;12.514;2024-01-30T01:11:43;0.60;;;0.50;;
31126;SDS011;17775;57.948;12.514;2024-01-30T01:14:10;0.80;;;0.40;;
31126;SDS011;17775;57.948;12.514;2024-01-30T01:16:36;0.63;;;0.60;;
31126;SDS011;17775;57.948;12.514;2024-01-30T01:19:03;0.60;;;0.50;;
31126;SDS011;17775;57.948;12.514;2024-01-30T01:21:31;0.70;;;0.50;;
31126;SDS011;17775;57.948;12.514;2024-01-30T01:23:57;0.80;;;0.50;;
31126;SDS011;17775;57.948;12.514;2024-01-30T01:26:24;0.75;;;0.40;;
31126;SDS011;17775;57.948;12.514;2024-01-30T01:28:53;1.45;;;0.68;;
31126;SDS011;17775;57.948;12.514;2024-01-30T01:31:20;0.90;;;0.50;;
31126;SDS011;17775;57.948;12.514;2024-01-30T01:33:49;0.65;;;0.40;;
31126;SDS011;17775;57.948;12.514;2024-01-30T01:36:15;0.55;;;0.55;;
31126;SDS011;17775;57.948;12.514;2024-01-30T01:38:42;1.00;;;0.80;;
31126;SDS011;17775;57.948;12.514;2024-01-30T01:41:08;0.63;;;0.50;;
31126;SDS011;17775;57.948;12.514;2024-01-30T01:43:35;1.05;;;0.60;;
31126;SDS011;17775;57.948;12.514;2024-01-30T01:46:05;0.82;;;0.57;;
31126;SDS011;17775;57.948;12.514;2024-01-30T01:48:31;0.70;;;0.60;;
31126;SDS011;17775;57.948;12.514;2024-01-30T01:50:58;0.80;;;0.50;;
31126;SDS011;17775;57.948;12.514;2024-01-30T01:53:25;0.63;;;0.45;;
31126;SDS011;17775;57.948;12.514;2024-01-30T01:55:52;0.70;;;0.50;;
31126;SDS011;17775;57.948;12.514;2024-01-30T01:58:19;0.60;;;0.47;;
31126;SDS011;17775;57.948;12.514;2024-01-30T02:00:48;0.80;;;0.50;;
31126;SDS011;17775;57.948;12.514;2024-01-30T02:03:15;0.40;;;0.40;;
31126;SDS011;17775;57.948;12.514;2024-01-30T02:05:43;0.30;;;0.30;;
31126;SDS011;17775;57.948;12.514;2024-01-30T02:08:09;0.82;;;0.57;;
31126;SDS011;17775;57.948;12.514;2024-01-30T02:10:36;0.85;;;0.52;;
31126;SDS011;17775;57.948;12.514;2024-01-30T02:13:02;0.73;;;0.50;;
31126;SDS011;17775;57.948;12.514;2024-01-30T02:15:29;0.70;;;0.60;;
31126;SDS011;17775;57.948;12.514;2024-01-30T02:17:55;0.70;;;0.40;;
31126;SDS011;17775;57.948;12.514;2024-01-30T02:20:23;0.70;;;0.50;;
31126;SDS011;17775;57.948;12.514;2024-01-30T02:22:55;0.60;;;0.50;;
31126;SDS011;17775;57.948;12.514;2024-01-30T02:25:38;1.23;;;0.70;;
31126;SDS011;17775;57.948;12.514;2024-01-30T02:28:05;0.80;;;0.50;;
31126;SDS011;17775;57.948;12.514;2024-01-30T02:30:32;0.73;;;0.45;;
31126;SDS011;17775;57.948;12.514;2024-01-30T02:32:58;0.47;;;0.40;;
31126;SDS011;17775;57.948;12.514;2024-01-30T02:35:24;0.50;;;0.50;;
31126;SDS011;17775;57.948;12.514;2024-01-30T02:37:51;0.40;;;0.40;;
31126;SDS011;17775;57.948;12.514;2024-01-30T02:40:18;0.57;;;0.50;;
31126;SDS011;17775;57.948;12.514;2024-01-30T02:42:44;0.50;;;0.45;;
31126;SDS011;17775;57.948;12.514;2024-01-30T02:45:11;1.13;;;0.55;;
31126;SDS011;17775;57.948;12.514;2024-01-30T02:47:40;0.60;;;0.52;;
31126;SDS011;17775;57.948;12.514;2024-01-30T02:50:07;0.85;;;0.68;;
31126;SDS011;17775;57.948;12.514;2024-01-30T02:52:34;1.00;;;0.73;;
31126;SDS011;17775;57.948;12.514;2024-01-30T02:55:00;0.60;;;0.60;;
31126;SDS011;17775;57.948;12.514;2024-01-30T02:57:28;0.50;;;0.50;;
31126;SDS011;17775;57.948;12.514;2024-01-30T02:59:54;0.65;;;0.50;;
31126;SDS011;17775;57.948;12.514;2024-01-30T03:02:21;0.52;;;0.52;;
31126;SDS011;17775;57.948;12.514;2024-01-30T03:04:47;1.48;;;0.70;;
31126;SDS011;17775;57.948;12.514;2024-01-30T03:07:14;1.65;;;1.10;;
31126;SDS011;17775;57.948;12.514;2024-01-30T03:09:41;0.80;;;0.70;;
31126;SDS011;17775;57.948;12.514;2024-01-30T03:12:07;1.02;;;0.60;;
31126;SDS011;17775;57.948;12.514;2024-01-30T03:14:36;0.57;;;0.50;;
31126;SDS011;17775;57.948;12.514;2024-01-30T03:17:03;0.98;;;0.70;;
31126;SDS011;17775;57.948;12.514;2024-01-30T03:19:29;0.75;;;0.50;;
31126;SDS011;17775;57.948;12.514;2024-01-30T03:21:57;1.05;;;0.70;;
31126;SDS011;17775;57.948;12.514;2024-01-30T03:24:23;0.90;;;0.70;;
31126;SDS011;17775;57.948;12.514;2024-01-30T03:26:50;1.17;;;0.80;;
31126;SDS011;17775;57.948;12.514;2024-01-30T03:29:16;1.67;;;1.00;;
31126;SDS011;17775;57.948;12.514;2024-01-30T03:31:43;1.17;;;0.70;;
31126;SDS011;17775;57.948;12.514;2024-01-30T03:34:09;1.23;;;0.80;;
31126;SDS011;17775;57.948;12.514;2024-01-30T03:36:36;0.95;;;0.60;;
31126;SDS011;17775;57.948;12.514;2024-01-30T03:39:02;1.27;;;0.70;;
31126;SDS011;17775;57.948;12.514;2024-01-30T03:41:29;0.70;;;0.50;;
31126;SDS011;17775;57.948;12.514;2024-01-30T03:43:55;0.60;;;0.55;;
31126;SDS011;17775;57.948;12.514;2024-01-30T03:46:22;0.60;;;0.60;;
31126;SDS011;17775;57.948;12.514;2024-01-30T03:48:51;1.50;;;0.88;;
31126;SDS011;17775;57.948;12.514;2024-01-30T03:51:17;0.95;;;0.60;;
31126;SDS011;17775;57.948;12.514;2024-01-30T03:53:44;0.57;;;0.52;;
31126;SDS011;17775;57.948;12.514;2024-01-30T03:56:12;0.98;;;0.65;;
31126;SDS011;17775;57.948;12.514;2024-01-30T03:58:41;0.60;;;0.52;;
31126;SDS011;17775;57.948;12.514;2024-01-30T04:01:12;0.80;;;0.60;;
31126;SDS011;17775;57.948;12.514;2024-01-30T04:03:39;0.63;;;0.55;;
31126;SDS011;17775;57.948;12.514;2024-01-30T04:06:05;1.08;;;0.70;;
31126;SDS011;17775;57.948;12.514;2024-01-30T04:08:32;1.55;;;0.88;;
31126;SDS011;17775;57.948;12.514;2024-01-30T04:10:58;1.20;;;0.80;;
31126;SDS011;17775;57.948;12.514;2024-01-30T04:13:25;0.88;;;0.68;;
31126;SDS011;17775;57.948;12.514;2024-01-30T04:15:51;0.60;;;0.50;;
31126;SDS011;17775;57.948;12.514;2024-01-30T04:18:18;1.13;;;0.70;;
31126;SDS011;17775;57.948;12.514;2024-01-30T04:20:44;1.13;;;0.80;;
31126;SDS011;17775;57.948;12.514;2024-01-30T04:23:13;0.77;;;0.57;;
31126;SDS011;17775;57.948;12.514;2024-01-30T04:25:40;0.57;;;0.50;;
31126;SDS011;17775;57.948;12.514;2024-01-30T04:28:06;0.90;;;0.60;;
31126;SDS011;17775;57.948;12.514;2024-01-30T04:30:33;0.63;;;0.40;;
31126;SDS011;17775;57.948;12.514;2024-01-30T04:32:59;0.40;;;0.40;;
31126;SDS011;17775;57.948;12.514;2024-01-30T04:35:26;0.90;;;0.60;;
31126;SDS011;17775;57.948;12.514;2024-01-30T04:37:54;0.70;;;0.50;;
31126;SDS011;17775;57.948;12.514;2024-01-30T04:40:21;0.60;;;0.50;;
31126;SDS011;17775;57.948;12.514;2024-01-30T04:42:47;0.60;;;0.50;;
31126;SDS011;17775;57.948;12.514;2024-01-30T04:45:14;0.40;;;0.40;;
31126;SDS011;17775;57.948;12.514;2024-01-30T04:47:41;0.65;;;0.60;;
31126;SDS011;17775;57.948;12.514;2024-01-30T04:50:07;0.52;;;0.30;;
31126;SDS011;17775;57.948;12.514;2024-01-30T04:52:35;0.77;;;0.50;;
31126;SDS011;17775;57.948;12.514;2024-01-30T04:55:02;0.65;;;0.47;;
31126;SDS011;17775;57.948;12.514;2024-01-30T04:57:28;0.77;;;0.52;;
31126;SDS011;17775;57.948;12.514;2024-01-30T04:59:55;0.40;;;0.40;;
31126;SDS011;17775;57.948;12.514;2024-01-30T05:02:21;0.75;;;0.50;;
31126;SDS011;17775;57.948;12.514;2024-01-30T05:04:48;0.90;;;0.60;;
31126;SDS011;17775;57.948;12.514;2024-01-30T05:07:15;0.43;;;0.40;;
31126;SDS011;17775;57.948;12.514;2024-01-30T05:09:44;0.55;;;0.40;;
31126;SDS011;17775;57.948;12.514;2024-01-30T05:12:10;0.40;;;0.40;;
31126;SDS011;17775;57.948;12.514;2024-01-30T05:14:37;0.40;;;0.40;;
31126;SDS011;17775;57.948;12.514;2024-01-30T05:17:03;0.40;;;0.38;;
31126;SDS011;17775;57.948;12.514;2024-01-30T05:19:33;0.65;;;0.50;;
31126;SDS011;17775;57.948;12.514;2024-01-30T05:22:00;0.57;;;0.57;;
31126;SDS011;17775;57.948;12.514;2024-01-30T05:24:26;0.40;;;0.40;;
31126;SDS011;17775;57.948;12.514;2024-01-30T05:26:53;0.82;;;0.60;;
31126;SDS011;17775;57.948;12.514;2024-01-30T05:29:19;0.60;;;0.50;;
31126;SDS011;17775;57.948;12.514;2024-01-30T05:31:46;0.57;;;0.50;;
31126;SDS011;17775;57.948;12.514;2024-01-30T05:34:12;0.40;;;0.40;;
31126;SDS011;17775;57.948;12.514;2024-01-30T05:36:40;0.50;;;0.40;;
31126;SDS011;17775;57.948;12.514;2024-01-30T05:39:09;0.70;;;0.50;;
31126;SDS011;17775;57.948;12.514;2024-01-30T05:41:36;1.10;;;0.68;;
31126;SDS011;17775;57.948;12.514;2024-01-30T05:44:03;0.60;;;0.50;;
31126;SDS011;17775;57.948;12.514;2024-01-30T05:46:29;0.82;;;0.60;;
31126;SDS011;17775;57.948;12.514;2024-01-30T05:48:56;0.80;;;0.50;;
31126;SDS011;17775;57.948;12.514;2024-01-30T05:51:22;0.57;;;0.50;;
31126;SDS011;17775;57.948;12.514;2024-01-30T05:53:49;0.50;;;0.40;;
31126;SDS011;17775;57.948;12.514;2024-01-30T05:56:15;0.70;;;0.55;;
31126;SDS011;17775;57.948;12.514;2024-01-30T05:58:42;0.60;;;0.50;;
31126;SDS011;17775;57.948;12.514;2024-01-30T06:01:09;0.43;;;0.40;;
31126;SDS011;17775;57.948;12.514;2024-01-30T06:03:36;0.40;;;0.40;;
31126;SDS011;17775;57.948;12.514;2024-01-30T06:06:02;0.77;;;0.60;;
31126;SDS011;17775;57.948;12.514;2024-01-30T06:08:29;0.68;;;0.60;;
31126;SDS011;17775;57.948;12.514;2024-01-30T06:10:55;0.40;;;0.40;;
31126;SDS011;17775;57.948;12.514;2024-01-30T06:13:22;0.60;;;0.50;;
31126;SDS011;17775;57.948;12.514;2024-01-30T06:15:48;0.68;;;0.60;;
31126;SDS011;17775;57.948;12.514;2024-01-30T06:18:17;0.68;;;0.50;;
31126;SDS011;17775;57.948;12.514;2024-01-30T06:20:44;0.40;;;0.40;;
31126;SDS011;17775;57.948;12.514;2024-01-30T06:23:10;0.68;;;0.60;;
31126;SDS011;17775;57.948;12.514;2024-01-30T06:25:39;0.50;;;0.50;;
31126;SDS011;17775;57.948;12.514;2024-01-30T06:28:05;0.63;;;0.52;;
31126;SDS011;17775;57.948;12.514;2024-01-30T06:30:32;0.88;;;0.68;;
31126;SDS011;17775;57.948;12.514;2024-01-30T06:32:58;0.70;;;0.50;;
31126;SDS011;17775;57.948;12.514;2024-01-30T06:35:25;0.65;;;0.50;;
31126;SDS011;17775;57.948;12.514;2024-01-30T06:37:53;0.50;;;0.50;;
31126;SDS011;17775;57.948;12.514;2024-01-30T06:40:20;0.68;;;0.50;;
31126;SDS011;17775;57.948;12.514;2024-01-30T06:42:46;1.05;;;0.70;;
31126;SDS011;17775;57.948;12.514;2024-01-30T06:45:13;0.60;;;0.57;;
31126;SDS011;17775;57.948;12.514;2024-01-30T06:47:39;0.88;;;0.80;;
31126;SDS011;17775;57.948;12.514;2024-01-30T06:50:06;1.33;;;0.80;;
31126;SDS011;17775;57.948;12.514;2024-01-30T06:52:32;0.90;;;0.65;;
31126;SDS011;17775;57.948;12.514;2024-01-30T06:54:59;1.08;;;0.80;;
31126;SDS011;17775;57.948;12.514;2024-01-30T06:57:25;0.95;;;0.60;;
31126;SDS011;17775;57.948;12.514;2024-01-30T06:59:57;0.57;;;0.40;;
31126;SDS011;17775;57.948;12.514;2024-01-30T07:02:23;0.80;;;0.70;;
31126;SDS011;17775;57.948;12.514;2024-01-30T07:04:50;0.85;;;0.60;;
31126;SDS011;17775;57.948;12.514;2024-01-30T07:07:16;0.85;;;0.70;;
31126;SDS011;17775;57.948;12.514;2024-01-30T07:09:43;0.90;;;0.68;;
31126;SDS011;17775;57.948;12.514;2024-01-30T07:12:10;0.80;;;0.60;;
31126;SDS011;17775;57.948;12.514;2024-01-30T07:14:36;0.98;;;0.80;;
31126;SDS011;17775;57.948;12.514;2024-01-30T07:17:03;1.00;;;0.70;;
31126;SDS011;17775;57.948;12.514;2024-01-30T07:19:29;0.95;;;0.82;;
31126;SDS011;17775;57.948;12.514;2024-01-30T07:21:56;0.82;;;0.60;;
31126;SDS011;17775;57.948;12.514;2024-01-30T07:24:22;0.80;;;0.60;;
31126;SDS011;17775;57.948;12.514;2024-01-30T07:26:49;0.70;;;0.50;;
31126;SDS011;17775;57.948;12.514;2024-01-30T07:29:15;0.90;;;0.60;;
31126;SDS011;17775;57.948;12.514;2024-01-30T07:31:42;1.13;;;0.85;;
31126;SDS011;17775;57.948;12.514;2024-01-30T07:34:09;1.20;;;0.88;;
31126;SDS011;17775;57.948;12.514;2024-01-30T07:36:38;1.13;;;0.95;;
31126;SDS011;17775;57.948;12.514;2024-01-30T07:39:05;1.17;;;0.80;;
31126;SDS011;17775;57.948;12.514;2024-01-30T07:41:31;0.98;;;0.70;;
31126;SDS011;17775;57.948;12.514;2024-01-30T07:43:58;1.00;;;0.77;;
31126;SDS011;17775;57.948;12.514;2024-01-30T07:46:24;0.98;;;0.68;;
31126;SDS011;17775;57.948;12.514;2024-01-30T07:48:50;0.82;;;0.60;;
31126;SDS011;17775;57.948;12.514;2024-01-30T07:51:20;0.85;;;0.60;;
31126;SDS011;17775;57.948;12.514;2024-01-30T07:53:53;1.00;;;0.80;;
31126;SDS011;17775;57.948;12.514;2024-01-30T07:56:20;1.80;;;1.15;;
31126;SDS011;17775;57.948;12.514;2024-01-30T07:58:46;1.67;;;1.35;;
31126;SDS011;17775;57.948;12.514;2024-01-30T08:01:14;1.08;;;0.88;;
31126;SDS011;17775;57.948;12.514;2024-01-30T08:03:41;0.93;;;0.70;;
31126;SDS011;17775;57.948;12.514;2024-01-30T08:06:08;1.08;;;0.73;;
31126;SDS011;17775;57.948;12.514;2024-01-30T08:08:37;1.00;;;0.70;;
31126;SDS011;17775;57.948;12.514;2024-01-30T08:11:04;1.02;;;0.65;;
31126;SDS011;17775;57.948;12.514;2024-01-30T08:13:31;1.02;;;0.88;;
31126;SDS011;17775;57.948;12.514;2024-01-30T08:15:57;1.48;;;0.90;;
31126;SDS011;17775;57.948;12.514;2024-01-30T08:18:24;1.50;;;1.00;;
31126;SDS011;17775;57.948;12.514;2024-01-30T08:20:50;2.08;;;1.20;;
31126;SDS011;17775;57.948;12.514;2024-01-30T08:23:17;1.38;;;1.00;;
31126;SDS011;17775;57.948;12.514;2024-01-30T08:25:43;2.08;;;1.40;;
31126;SDS011;17775;57.948;12.514;2024-01-30T08:28:12;1.83;;;1.20;;
31126;SDS011;17775;57.948;12.514;2024-01-30T08:30:39;2.70;;;1.65;;
31126;SDS011;17775;57.948;12.514;2024-01-30T08:33:06;2.20;;;1.60;;
31126;SDS011;17775;57.948;12.514;2024-01-30T08:35:33;3.10;;;1.80;;
31126;SDS011;17775;57.948;12.514;2024-01-30T08:38:00;2.30;;;1.40;;
31126;SDS011;17775;57.948;12.514;2024-01-30T08:40:26;2.13;;;1.40;;
31126;SDS011;17775;57.948;12.514;2024-01-30T08:42:54;2.83;;;1.63;;
31126;SDS011;17775;57.948;12.514;2024-01-30T08:45:20;1.77;;;1.25;;
31126;SDS011;17775;57.948;12.514;2024-01-30T08:47:46;1.67;;;1.23;;
31126;SDS011;17775;57.948;12.514;2024-01-30T08:50:13;1.60;;;1.10;;
31126;SDS011;17775;57.948;12.514;2024-01-30T08:52:40;1.17;;;1.08;;
31126;SDS011;17775;57.948;12.514;2024-01-30T08:55:06;1.60;;;1.02;;
31126;SDS011;17775;57.948;12.514;2024-01-30T08:57:33;1.20;;;1.00;;
31126;SDS011;17775;57.948;12.514;2024-01-30T09:00:02;1.25;;;0.88;;
31126;SDS011;17775;57.948;12.514;2024-01-30T09:02:36;1.10;;;0.80;;
31126;SDS011;17775;57.948;12.514;2024-01-30T09:05:03;1.38;;;0.80;;
31126;SDS011;17775;57.948;12.514;2024-01-30T09:07:30;1.13;;;0.77;;
31126;SDS011;17775;57.948;12.514;2024-01-30T09:09:56;1.40;;;0.88;;
31126;SDS011;17775;57.948;12.514;2024-01-30T09:12:23;1.02;;;0.88;;
31126;SDS011;17775;57.948;12.514;2024-01-30T09:14:50;1.15;;;0.80;;
31126;SDS011;17775;57.948;12.514;2024-01-30T09:17:16;1.08;;;0.80;;
31126;SDS011;17775;57.948;12.514;2024-01-30T09:19:43;1.15;;;0.70;;
31126;SDS011;17775;57.948;12.514;2024-01-30T09:22:09;1.25;;;0.90;;
31126;SDS011;17775;57.948;12.514;2024-01-30T09:24:35;2.58;;;1.48;;
31126;SDS011;17775;57.948;12.514;2024-01-30T09:27:02;2.38;;;1.58;;
31126;SDS011;17775;57.948;12.514;2024-01-30T09:29:28;1.88;;;1.10;;
31126;SDS011;17775;57.948;12.514;2024-01-30T09:31:55;1.65;;;1.25;;
31126;SDS011;17775;57.948;12.514;2024-01-30T09:34:21;2.78;;;1.67;;
31126;SDS011;17775;57.948;12.514;2024-01-30T09:36:48;2.42;;;1.52;;
31126;SDS011;17775;57.948;12.514;2024-01-30T09:39:15;2.05;;;1.60;;
31126;SDS011;17775;57.948;12.514;2024-01-30T09:41:49;2.55;;;1.60;;
31126;SDS011;17775;57.948;12.514;2024-01-30T09:44:16;2.25;;;1.23;;
31126;SDS011;17775;57.948;12.514;2024-01-30T09:46:43;2.65;;;1.40;;
31126;SDS011;17775;57.948;12.514;2024-01-30T09:49:13;1.90;;;1.23;;
31126;SDS011;17775;57.948;12.514;2024-01-30T09:51:42;2.10;;;1.50;;
31126;SDS011;17775;57.948;12.514;2024-01-30T09:54:11;1.10;;;0.80;;
31126;SDS011;17775;57.948;12.514;2024-01-30T09:56:39;1.23;;;0.90;;
31126;SDS011;17775;57.948;12.514;2024-01-30T09:59:05;0.70;;;0.70;;
31126;SDS011;17775;57.948;12.514;2024-01-30T10:01:33;1.00;;;0.80;;
31126;SDS011;17775;57.948;12.514;2024-01-30T10:04:00;0.95;;;0.80;;
31126;SDS011;17775;57.948;12.514;2024-01-30T10:06:27;0.70;;;0.52;;
31126;SDS011;17775;57.948;12.514;2024-01-30T10:08:54;0.68;;;0.55;;
31126;SDS011;17775;57.948;12.514;2024-01-30T10:11:23;1.13;;;0.90;;
31126;SDS011;17775;57.948;12.514;2024-01-30T10:13:52;1.50;;;1.00;;
31126;SDS011;17775;57.948;12.514;2024-01-30T10:16:19;3.58;;;2.53;;
31126;SDS011;17775;57.948;12.514;2024-01-30T10:18:48;1.75;;;1.35;;
31126;SDS011;17775;57.948;12.514;2024-01-30T10:21:14;2.05;;;1.20;;
31126;SDS011;17775;57.948;12.514;2024-01-30T10:23:41;1.70;;;1.15;;
31126;SDS011;17775;57.948;12.514;2024-01-30T10:26:09;1.40;;;0.95;;
31126;SDS011;17775;57.948;12.514;2024-01-30T10:28:36;1.50;;;0.82;;
31126;SDS011;17775;57.948;12.514;2024-01-30T10:31:03;0.82;;;0.73;;
31126;SDS011;17775;57.948;12.514;2024-01-30T10:33:32;1.17;;;0.80;;
31126;SDS011;17775;57.948;12.514;2024-01-30T10:36:03;0.85;;;0.70;;
31126;SDS011;17775;57.948;12.514;2024-01-30T10:38:31;0.80;;;0.68;;
31126;SDS011;17775;57.948;12.514;2024-01-30T10:40:59;0.65;;;0.65;;
31126;SDS011;17775;57.948;12.514;2024-01-30T10:43:32;0.82;;;0.60;;
31126;SDS011;17775;57.948;12.514;2024-01-30T10:46:03;0.93;;;0.60;;
31126;SDS011;17775;57.948;12.514;2024-01-30T10:48:32;0.82;;;0.60;;
31126;SDS011;17775;57.948;12.514;2024-01-30T10:50:58;0.88;;;0.70;;
31126;SDS011;17775;57.948;12.514;2024-01-30T10:53:26;0.52;;;0.50;;
31126;SDS011;17775;57.948;12.514;2024-01-30T10:55:56;0.95;;;0.63;;
31126;SDS011;17775;57.948;12.514;2024-01-30T10:58:23;0.60;;;0.55;;
31126;SDS011;17775;57.948;12.514;2024-01-30T11:00:50;0.63;;;0.50;;
31126;SDS011;17775;57.948;12.514;2024-01-30T11:03:17;0.85;;;0.82;;
31126;SDS011;17775;57.948;12.514;2024-01-30T11:05:48;1.10;;;0.70;;
31126;SDS011;17775;57.948;12.514;2024-01-30T11:08:14;1.33;;;0.70;;
31126;SDS011;17775;57.948;12.514;2024-01-30T11:10:45;0.55;;;0.55;;
31126;SDS011;17775;57.948;12.514;2024-01-30T11:13:15;0.68;;;0.50;;
31126;SDS011;17775;57.948;12.514;2024-01-30T11:15:42;0.93;;;0.50;;
31126;SDS011;17775;57.948;12.514;2024-01-30T11:18:08;0.55;;;0.52;;
31126;SDS011;17775;57.948;12.514;2024-01-30T11:20:38;0.47;;;0.45;;
31126;SDS011;17775;57.948;12.514;2024-01-30T11:23:11;0.50;;;0.50;;
31126;SDS011;17775;57.948;12.514;2024-01-30T11:25:38;0.95;;;0.70;;
31126;SDS011;17775;57.948;12.514;2024-01-30T11:28:04;1.40;;;1.02;;
31126;SDS011;17775;57.948;12.514;2024-01-30T11:30:31;1.33;;;1.02;;
31126;SDS011;17775;57.948;12.514;2024-01-30T11:33:11;1.55;;;1.20;;
31126;SDS011;17775;57.948;12.514;2024-01-30T11:35:38;0.98;;;0.82;;
31126;SDS011;17775;57.948;12.514;2024-01-30T11:38:07;1.30;;;0.85;;
31126;SDS011;17775;57.948;12.514;2024-01-30T11:40:34;1.10;;;0.85;;
31126;SDS011;17775;57.948;12.514;2024-01-30T11:43:01;1.20;;;0.90;;
31126;SDS011;17775;57.948;12.514;2024-01-30T11:45:29;1.25;;;0.93;;
31126;SDS011;17775;57.948;12.514;2024-01-30T11:47:56;0.95;;;0.80;;
31126;SDS011;17775;57.948;12.514;2024-01-30T11:50:24;1.00;;;0.77;;
31126;SDS011;17775;57.948;12.514;2024-01-30T11:52:51;0.65;;;0.55;;
31126;SDS011;17775;57.948;12.514;2024-01-30T11:55:17;0.73;;;0.70;;
31126;SDS011;17775;57.948;12.514;2024-01-30T11:57:44;1.08;;;0.82;;
31126;SDS011;17775;57.948;12.514;2024-01-30T12:00:17;1.73;;;1.30;;
31126;SDS011;17775;57.948;12.514;2024-01-30T12:02:48;1.52;;;1.20;;
31126;SDS011;17775;57.948;12.514;2024-01-30T12:05:15;2.53;;;1.73;;
31126;SDS011;17775;57.948;12.514;2024-01-30T12:07:45;1.45;;;1.15;;
31126;SDS011;17775;57.948;12.514;2024-01-30T12:10:13;1.50;;;1.20;;
31126;SDS011;17775;57.948;12.514;2024-01-30T12:12:45;1.92;;;1.30;;
31126;SDS011;17775;57.948;12.514;2024-01-30T12:15:12;1.85;;;1.45;;
31126;SDS011;17775;57.948;12.514;2024-01-30T12:17:39;2.17;;;1.33;;
31126;SDS011;17775;57.948;12.514;2024-01-30T12:20:12;1.95;;;1.40;;
31126;SDS011;17775;57.948;12.514;2024-01-30T12:22:40;2.70;;;1.60;;
31126;SDS011;17775;57.948;12.514;2024-01-30T12:25:10;2.00;;;1.45;;
31126;SDS011;17775;57.948;12.514;2024-01-30T12:27:37;2.17;;;1.42;;
31126;SDS011;17775;57.948;12.514;2024-01-30T12:30:07;2.47;;;1.98;;
31126;SDS011;17775;57.948;12.514;2024-01-30T12:32:34;1.83;;;1.52;;
31126;SDS011;17775;57.948;12.514;2024-01-30T12:35:01;1.70;;;1.40;;
31126;SDS011;17775;57.948;12.514;2024-01-30T12:37:29;2.17;;;1.58;;
31126;SDS011;17775;57.948;12.514;2024-01-30T12:39:56;2.22;;;1.63;;
31126;SDS011;17775;57.948;12.514;2024-01-30T12:42:22;2.20;;;1.60;;
31126;SDS011;17775;57.948;12.514;2024-01-30T12:44:49;2.33;;;1.50;;
31126;SDS011;17775;57.948;12.514;2024-01-30T12:47:16;2.67;;;1.80;;
31126;SDS011;17775;57.948;12.514;2024-01-30T12:49:43;1.92;;;1.55;;
31126;SDS011;17775;57.948;12.514;2024-01-30T12:52:11;2.22;;;1.50;;
31126;SDS011;17775;57.948;12.514;2024-01-30T12:54:38;2.20;;;1.60;;
31126;SDS011;17775;57.948;12.514;2024-01-30T12:57:05;2.92;;;2.10;;
31126;SDS011;17775;57.948;12.514;2024-01-30T12:59:31;2.95;;;1.98;;
31126;SDS011;17775;57.948;12.514;2024-01-30T13:01:59;3.33;;;2.42;;
31126;SDS011;17775;57.948;12.514;2024-01-30T13:04:26;3.78;;;2.50;;
31126;SDS011;17775;57.948;12.514;2024-01-30T13:06:53;4.72;;;3.25;;
31126;SDS011;17775;57.948;12.514;2024-01-30T13:09:19;4.88;;;3.60;;
31126;SDS011;17775;57.948;12.514;2024-01-30T13:11:46;5.95;;;3.70;;
31126;SDS011;17775;57.948;12.514;2024-01-30T13:14:13;6.25;;;4.07;;
31126;SDS011;17775;57.948;12.514;2024-01-30T13:16:39;5.65;;;3.60;;
31126;SDS011;17775;57.948;12.514;2024-01-30T13:19:05;6.60;;;4.65;;
31126;SDS011;17775;57.948;12.514;2024-01-30T13:21:32;8.18;;;4.97;;
31126;SDS011;17775;57.948;12.514;2024-01-30T13:23:58;7.00;;;4.70;;
31126;SDS011;17775;57.948;12.514;2024-01-30T13:26:25;6.20;;;4.05;;
31126;SDS011;17775;57.948;12.514;2024-01-30T13:28:51;7.80;;;5.00;;
31126;SDS011;17775;57.948;12.514;2024-01-30T13:31:18;8.48;;;4.63;;
31126;SDS011;17775;57.948;12.514;2024-01-30T13:33:45;9.18;;;5.35;;
31126;SDS011;17775;57.948;12.514;2024-01-30T13:36:12;7.40;;;4.68;;
31126;SDS011;17775;57.948;12.514;2024-01-30T13:38:38;6.78;;;3.90;;
31126;SDS011;17775;57.948;12.514;2024-01-30T13:41:05;7.63;;;4.40;;
31126;SDS011;17775;57.948;12.514;2024-01-30T13:43:32;6.63;;;3.95;;
31126;SDS011;17775;57.948;12.514;2024-01-30T13:45:58;5.72;;;3.60;;
31126;SDS011;17775;57.948;12.514;2024-01-30T13:48:25;8.13;;;4.28;;
31126;SDS011;17775;57.948;12.514;2024-01-30T13:50:51;6.88;;;3.83;;
31126;SDS011;17775;57.948;12.514;2024-01-30T13:53:20;8.00;;;4.30;;
31126;SDS011;17775;57.948;12.514;2024-01-30T13:55:47;9.88;;;5.88;;
31126;SDS011;17775;57.948;12.514;2024-01-30T13:58:13;8.57;;;4.80;;
31126;SDS011;17775;57.948;12.514;2024-01-30T14:00:40;7.10;;;4.15;;
31126;SDS011;17775;57.948;12.514;2024-01-30T14:03:06;8.25;;;4.60;;
31126;SDS011;17775;57.948;12.514;2024-01-30T14:05:33;7.50;;;4.53;;
31126;SDS011;17775;57.948;12.514;2024-01-30T14:08:00;11.93;;;5.80;;
31126;SDS011;17775;57.948;12.514;2024-01-30T14:10:26;8.35;;;5.15;;
31126;SDS011;17775;57.948;12.514;2024-01-30T14:12:53;8.93;;;5.07;;
31126;SDS011;17775;57.948;12.514;2024-01-30T14:15:19;8.70;;;4.70;;
31126;SDS011;17775;57.948;12.514;2024-01-30T14:17:54;9.05;;;4.78;;
31126;SDS011;17775;57.948;12.514;2024-01-30T14:20:22;8.40;;;5.00;;
31126;SDS011;17775;57.948;12.514;2024-01-30T14:22:48;9.75;;;5.47;;
31126;SDS011;17775;57.948;12.514;2024-01-30T14:25:15;9.18;;;5.18;;
31126;SDS011;17775;57.948;12.514;2024-01-30T14:27:43;6.93;;;4.40;;
31126;SDS011;17775;57.948;12.514;2024-01-30T14:30:10;7.00;;;4.03;;
31126;SDS011;17775;57.948;12.514;2024-01-30T14:32:36;5.88;;;3.70;;
31126;SDS011;17775;57.948;12.514;2024-01-30T14:35:04;4.05;;;3.13;;